This site, now in its 22nd season, is a labour of love and fun from one of Ottawa's most avid time trialists and number crunchers. It adheres to and is permitted by the laws of Canada, promotes the objectives of every bicycle club whose results are shown, and is donated free of charge by myself for your enjoyment and usage. If you would like results from series you ride in to be shown here, give me (celia@drmath.ca) a shout!
NOTE that this site had to be quickly moved to a new server with a new version of Perl. Unfortunately the way of interacting with the web form has changed, so I'll have to do some reprogramming to get the buttons and search boxes working. Meanwhile the links work fine and you can always add query specifications into the URL! :-)


Index Page
ATT OTT WTT AATT CFCTT VVVTT
Help resultformat:
Case-sensitive

OBC Open TT Series - 2012-Jul-05 - 15km (Rockliffe Pkwy) (EvtFactor = 0.9374)

Ottawa Weather (18:00): Mainly Sunny. Temperature: 29C, Humidity: 36%, Dew Point: 13C, Wind: 0km/h, Pressure: 101.1kPa, Vis: 10km, Humidex: 32.
Ottawa Weather (19:00): Sunny. Temperature: 29C, Humidity: 37%, Dew Point: 13C, Wind: WNW 5km/h, Pressure: 101.0kPa, Vis: 10km, Humidex: 32.
Ottawa Weather (20:00): Sunny. Temperature: 27C, Humidity: 49%, Dew Point: 15C, Wind: E 8km/h, Pressure: 101.1kPa, Vis: 10km, Humidex: 31.

The air pressure was higher than ideal, but with the calm conditions and warm temperature, some fast times were expected. Twenty-two riders improved upon their previous 15km database best, and five of those improved their cube speed by more than 10%! Forty of us, though, rode slower than our best this season. Send your excuses, especially if they are amusing! Anyway, the top three men were Vet A Douglas van den Ham (19:30), Vet B Glen Rendall (19:37) and Vet A Marc Brazeau with a new personal best of 20:13. For the women, Vet B Carol Deavy (23:29) was first. Vet C rider Jacinthe Vadeboncoer, out for the first time on the time trial bike of her partner Richard, posted a new personal best of 23:51. Third place went to Cadet Bailin Xie with a time of 24:26 which is well off of her season-series best of 22:54.

These results were posted on the OBC site circa 20:00 on 2012-Jul-08 and are available here for your added pleasure and analysis.

(Lest complaints about me just lazily sucking in the results surface, I wish to make it perfectly clear that I would gladly do the data entry, getting the results up within a few of hours of the event, as history shows that I did for the WTT series for the decade beginning in 1998, and for the OTT series from 1999-2002 and again in 2006. The OBC Board however, not only won't let me volunteer here, but strangely enough they actually expelled me from the OBC for donating this time trial web site to you !)




 
 

BESTS?
 
1 van den Ham, Douglas  NTF 19:30 46.154 1/77 U40M 1/10 0.9324
2 Rendall, Glen  RWR 19:37 45.879 2/77 U50M 1/14 1.0205
3 Brazeau, Marc RDO 20:13 44.518 3/77 U40M 2/10 1.0839
Trafford, Brian OBC 20:13 44.518 3/77 U30M 1/7  
5 Sudac, Rick  OBC/RWR 20:17 44.371 5/77 U70M 1/5 0.9539
6 Richer, Antoine --- 20:38 43.619 6/77 U40M 3/10 0.9360
7 Gee, Derek  OBC 20:45 43.373 7/77 U17M 1/4 0.9021
8 Katz, Joel  OBC/RWR 20:46 43.339 8/77 U60M 1/18 0.9643
9 Budgell, Glen  OBC 20:52 43.131 9/77 U60M 2/18 0.9739
10 Lister, Adam OBC 20:58 42.925 10/77 U30M 2/7 1.0435
11 Campbell, Colin  OBC 21:01 42.823 11/77 U60M 3/18 0.9740
12 Mullington, Chris WQW 21:09 42.553 12/77 U60M 4/18 0.9929
13 Gorman, Charlie NTF 21:10 42.520 13/77 U40M 4/10 1.2608
14 Christie, Greg  OBC/RWR 21:18 42.254 14/77 U60M 5/18 1.0502
15 Lees, Andrew NTF 21:25 42.023 15/77 U50M 2/14 0.9271
16 Wolfe, Yariv OBC 21:29 41.893 16/77 U50M 3/14 0.9633
Zappe, Erich RWR 21:29 41.893 16/77 U60M 6/18 0.9838
18 Burge, Craig  CYC 21:33 41.763 18/77 U60M 7/18 0.9907
19 Schuck, Peter  OBC/RWR 21:35 41.699 19/77 U60M 8/18 1.0399
20 Byway, Connor  OBC 21:40 41.538 20/77 U17M 2/4 1.1602
21 Parkinson, Scott OBC 21:51 41.190 21/77 U50M 4/14 1.0161
22 Cameron, Allen  OBC/RWR 22:07 40.693 22/77 U60M 9/18 0.9402
23 Konov, Sergei OBC 22:09 40.632 23/77 U40M 5/10 1.0159
24 Lacasse, Jeremie  OBC 22:17 40.389 24/77 U17M 3/4 0.9493
25 Larson, Eric RWR 22:19 40.329 25/77 U50M 5/14 1.0294
26 Dorego, Jean-Louis OBC 22:21 40.268 26/77 U70M 2/5 0.9173
27 Cordier, Gilles & Lafrenière, Julie SRC 22:22 40.238 27/77 TTT 1/1  
Davis, Doug --- 22:22 40.238 27/77 U50M 6/14 1.0385
Moerman, Bram  OBC 22:22 40.238 27/77 U70M 3/5 0.9624
30 Dion, Brian OBC 22:25 40.149 30/77 U40M 6/10 1.0430
31 Hynes, Derrick OBC 22:29 40.030 31/77 U50M 7/14 1.0567
32 Sylvestre-Williams, David OBC 22:33 39.911 32/77 U19M 1/1 1.0843
33 Grace, Darrin  EUR 22:40 39.706 33/77 U50M 8/14 1.0000
34 Page, Graham OBC/NTF 22:41 39.677 34/77 U30M 3/7 1.0380
35 Blais, Bob --- 22:46 39.531 35/77 U60M 10/18 0.9695
36 Châtelain-Lacasse, Samuel --- 22:49 39.445 36/77 U17M 4/4 1.0022
37 Yaeger, Dave  OBC 23:02 39.074 37/77 U60M 11/18 1.0285
38 Deschamps, Martin WQW 23:09 38.877 38/77 U40M 7/10 0.9828
39 Burge, Larry  OBC 23:11 38.821 39/77 U50M 9/14 1.0683
40 Ogoniek, Ron  OBC 23:24 38.462 40/77 U50M 10/14 1.1431
41 Redshaw, Russ  OBC 23:25 38.434 41/77 U60M 12/18  
42 Deavy, Carol  OBC 23:29 38.325 42/77 U50F 1/1 1.0258
43 Lacopia, Tony  FC 23:30 38.298 43/77 U30M 4/7 0.9958
44 Kerckhoff, Hermann  ABC 23:32 38.244 44/77 U80M 1/3 0.9937
Reid, George OBC 23:32 38.244 44/77 U60M 13/18 1.0432
46 Pehleman, Bob  OBC 23:34 38.190 46/77 U60M 14/18 1.0021
47 Medaglia, Jeremy OBC 23:41 38.001 47/77 U30M 5/7 1.0277
48 Cousineau, Tiz OBC 23:42 37.975 48/77 U30M 6/7 1.0691
49 Bouchard, Sebastién OBC 23:49 37.789 49/77 U30M 7/7 1.0297
50 Kramer, Mark OBC 23:51 37.736 50/77 U40M 8/10 1.1312
Vadeboncoeur, Jacinthe 
(out on Richard's TT bike)
OBC 23:51 37.736 50/77 U60F 1/5 1.0533
52 Martin, David OBC 23:52 37.709 52/77 U50M 11/14  
53 Déry, Nicolas  OBC 23:56 37.604 53/77 U40M 9/10 1.0231
54 Imbrogno, Giorgio  OBC 24:12 37.190 54/77 U70M 4/5 0.9693
55 Dore, Morley OBC 24:14 37.139 55/77 U80M 2/3 1.1493
56 Harcourt, Douglas OBC 24:19 37.012 56/77 U40M 10/10 1.0417
57 Gilchrist, Ryan  OBC 24:23 36.910 57/77 U50M 12/14 1.0020
58 Xie, Bailin  OBC 24:26 36.835 58/77 U17F 1/3 0.8233
59 Austen, Ian  OBC 24:32 36.685 59/77 U60M 15/18 0.9959
60 Coney, Ingrid  OBC 24:59 36.024 60/77 U60F 2/5 1.0529
61 Liechti, Hans-Peter OBC 25:03 35.928 61/77 U60M 16/18 1.0363
62 Meyer, Lisa  OBC 25:06 35.857 62/77 U60F 3/5 0.8633
63 Coveney, Shane  OBC 25:11 35.738 63/77 U50M 13/14 1.0301
64 Johnson, Laura  OBC 25:25 35.410 64/77 U40F 1/1 1.0399
65 Chatelain, Jean OBC 25:59 34.638 65/77 U50M 14/14  
66 Burchert, Amanda OBC 26:14 34.307 66/77 U30F 1/1  
67 Chase, Jasmine  OBC 26:24 34.091 67/77 U17F 2/3 1.0501
68 Burton, Myriam  OBC 26:26 34.048 68/77 U17F 3/3 0.9608
69 Douglas, Mark  OBC 26:27 34.026 69/77 U60M 17/18 0.9425
70 Dal-Cin, Mauro OBC 26:58 33.375 70/77 U60M 18/18 0.9743
71 Ajersch, Mary  OBC 27:22 32.887 71/77 U80F 1/1 0.9746
72 Jardine, Karen  OBC 27:32 32.688 72/77 U60F 4/5 1.0349
73 Simpson, Bob OBC 27:40 32.530 73/77 U70M 5/5  
74 McInnis, Celia 
(still riding mostly one-legged)
ABC/CYF 27:52 32.297 74/77 U60F 5/5 0.7845
75 St. John, Ronald OBC 29:00 31.034 75/77 U80M 3/3  
76 Robitaille, Devon  OBC 31:52 28.243 76/77 U15M 1/1  
77 Wright, Geoffrey  OBC 33:29 26.879 77/77 U90M 1/1 0.9734
 
Average Speed of all of the above 77 finishes (1155km in 30:11:46):38.25
>>>Average of the Average Speeds for these 77 finishes38.659<<<
 

The number of data records shown above is 77
The server processing of your query took: 1 wallclock secs ( 0.09 usr + 0.01 sys = 0.09 CPU)

Thanks to our Helpers: Michel Bernier, Alex McKnight, Hans Posthuma, Jess Raymond, Peter Tregunno.

     


Apr 6 (Good Friday) Apr 16 (10km) Apr 23 (10km) (Canceled - Cold Drizzle) Apr 30 (10km)
May 1 (10km) May 3 May 7 (10km) May 8 (10km) May 10 May 14 (10km) May 15 May 15 (10km) May 17 May 22 May 22 (10km) May 24 May 28 (10km) May 29 May 29 (10km) May 31
Jun 3 (40km) Jun 4 (10km) Jun 5 Jun 5 Jun 7 Jun 11 (10km) Jun 12 Jun 12 Jun 14 Jun 18 (10km) Jun 19 Jun 19 Jun 21 Jun 25 (10km) Jun 26 Jun 26 Jun 28
Jul 2 (10km) Jul 3 Jul 3
  Jul 5  
Jul 8 (40km) Jul 9 Jul 10 Jul 10 Jul 12 Jul 16 Jul 17 Jul 17 Jul 19 Jul 22 (40km) Jul 23 (Cancelled - Thunderstorm) Jul 24 Jul 24 Jul 26 Jul 30 Jul 31 Jul 31
Aug 2 Aug 5 (40km) Aug 6 Aug 7 Aug 7 Aug 9 Aug 12 (40km) Aug 13 Aug 14 Aug 14 Aug 16 Aug 20 Aug 21 Aug 21 Aug 23 Aug 28 Aug 28 (Invitational) Aug 30
Sep 2 (40km) Sep 4 Sep 6 Sep 9 (40km) Sep 11 Sep 13 Sep 18 Sep 25

OTT Rankings
3 Best Speeds     3 Best Speeds by category
WTT Rankings for All Participants
4 Best Speeds (≥4 WTT, ≤1 10km)     4 Best Speeds (≥4 WTT, ≤1 10km) by category
OTT Best Three 15km Rankings
Overall     by category     age-Hcap Female   age-Hcap Male
[OWA]TT BAR Ranking
Overall     by category     Rider "Consistency-Graph"
ABC BAR Ranking
Overall     by category     Rider "Consistency-Graph"
Other years
TT Calculator All TT People All TT events
ABC Home VVV Home
CKAP GOLD MEDAL
Other Links

Please send your comments and suggestions to: Celia McInnis
Copyright © 1998-2021 Celia McInnis. All rights reserved. Links are welcomed.